Time;durP1;ratioP1;P1;durP2;ratioP2;P2;SDS_P1;SDS_P2;PMS_P1;PMS_P2;Temp;Humidity;BMP_temperature;BMP_pressure;BME280_temperature;BME280_humidity;BME280_pressure;Samples;Min_cycle;Max_cycle;Signal;HPM_P1;HPM_P2
2024/03/04 00:00:12;;;;;;;85.33;43.23;;;7.60;99.90;;;;;;4933623;28;20249;-54
2024/03/04 00:02:39;;;;;;;81.03;43.13;;;7.60;99.90;;;;;;4960808;28;21137;-51
2024/03/04 00:05:06;;;;;;;78.20;41.33;;;7.60;99.90;;;;;;4961962;28;20210;-55
2024/03/04 00:07:34;;;;;;;77.60;41.80;;;7.60;99.90;;;;;;4951918;28;20194;-54
2024/03/04 00:10:01;;;;;;;76.80;42.00;;;7.60;99.90;;;;;;4962458;28;20305;-51
2024/03/04 00:12:28;;;;;;;84.47;42.40;;;7.60;99.90;;;;;;4958931;28;20190;-51
2024/03/04 00:14:55;;;;;;;78.30;41.60;;;7.60;99.90;;;;;;4962771;28;20212;-54
2024/03/04 00:17:23;;;;;;;81.83;43.57;;;7.60;99.90;;;;;;4924603;28;20738;-54
2024/03/04 00:19:50;;;;;;;79.87;42.53;;;7.60;99.90;;;;;;4962837;28;20242;-52
2024/03/04 00:22:17;;;;;;;73.40;41.27;;;7.60;99.90;;;;;;4957477;28;20280;-53
2024/03/04 00:24:44;;;;;;;75.17;41.83;;;7.50;99.90;;;;;;4961379;28;20193;-51
2024/03/04 00:27:11;;;;;;;81.27;41.60;;;7.60;99.90;;;;;;4965360;28;20198;-51
2024/03/04 00:29:38;;;;;;;81.40;44.03;;;7.50;99.90;;;;;;4963565;28;20272;-49
2024/03/04 00:32:06;;;;;;;76.77;42.57;;;7.50;99.90;;;;;;4936500;28;20233;-51
2024/03/04 00:34:34;;;;;;;72.50;41.20;;;7.50;99.90;;;;;;4962709;28;20190;-52
2024/03/04 00:37:02;;;;;;;80.63;41.37;;;7.50;99.90;;;;;;4966319;28;20285;-54
2024/03/04 00:39:29;;;;;;;79.43;44.10;;;7.50;99.90;;;;;;4955228;28;20273;-53
2024/03/04 00:41:56;;;;;;;82.47;44.13;;;7.50;99.90;;;;;;4965949;28;20204;-51
2024/03/04 00:44:22;;;;;;;77.37;43.57;;;7.50;99.90;;;;;;4963035;28;20199;-53
2024/03/04 00:46:49;;;;;;;76.23;41.93;;;7.50;99.90;;;;;;4966004;28;20248;-52
2024/03/04 00:49:16;;;;;;;72.43;42.50;;;7.50;99.90;;;;;;4933868;28;20241;-53
2024/03/04 00:51:45;;;;;;;75.33;42.17;;;7.40;99.90;;;;;;4964262;28;20256;-52
2024/03/04 00:54:13;;;;;;;78.60;43.40;;;7.40;99.90;;;;;;4957830;28;20198;-54
2024/03/04 00:56:39;;;;;;;73.10;40.57;;;7.40;99.90;;;;;;4963734;28;20202;-52
2024/03/04 00:59:07;;;;;;;78.70;43.40;;;7.50;99.90;;;;;;4965738;28;20270;-52
2024/03/04 01:01:34;;;;;;;73.13;41.23;;;7.40;99.90;;;;;;4962090;28;20190;-54
2024/03/04 01:04:01;;;;;;;74.33;40.27;;;7.40;99.90;;;;;;4936178;28;20236;-53
2024/03/04 01:06:27;;;;;;;74.97;43.33;;;7.50;99.90;;;;;;4961582;28;20288;-51
2024/03/04 01:08:56;;;;;;;81.37;42.70;;;7.50;99.90;;;;;;4958415;28;20649;-49
2024/03/04 01:11:22;;;;;;;78.60;42.77;;;7.50;99.90;;;;;;4961929;28;20199;-50
2024/03/04 01:13:49;;;;;;;76.07;41.53;;;7.50;99.90;;;;;;4964732;28;20204;-53
2024/03/04 01:16:16;;;;;;;77.20;43.60;;;7.50;99.90;;;;;;4962643;28;20560;-53
2024/03/04 01:18:43;;;;;;;72.40;42.90;;;7.40;99.90;;;;;;4933869;28;20233;-54
2024/03/04 01:21:10;;;;;;;75.87;42.67;;;7.50;99.90;;;;;;4964457;28;20584;-53
2024/03/04 01:23:38;;;;;;;76.33;41.50;;;7.50;99.90;;;;;;4955330;28;23500;-54
2024/03/04 01:26:06;;;;;;;79.37;42.40;;;7.50;99.90;;;;;;4956088;28;20209;-53
2024/03/04 01:28:33;;;;;;;75.93;42.83;;;7.50;99.90;;;;;;4962486;28;20218;-51
2024/03/04 01:31:00;;;;;;;79.27;42.90;;;7.50;99.90;;;;;;4963593;28;20222;-52
2024/03/04 01:33:27;;;;;;;81.77;44.63;;;7.50;99.90;;;;;;4930665;28;20213;-54
2024/03/04 01:35:54;;;;;;;79.40;43.10;;;7.50;99.90;;;;;;4962623;28;20198;-53
2024/03/04 01:38:21;;;;;;;82.93;45.20;;;7.50;99.90;;;;;;4961713;28;21769;-53
2024/03/04 01:40:48;;;;;;;82.20;43.47;;;7.50;99.90;;;;;;4958319;28;20703;-51
2024/03/04 01:43:18;;;;;;;72.60;41.33;;;7.50;99.90;;;;;;4960439;28;21001;-52
2024/03/04 01:45:45;;;;;;;70.40;40.10;;;7.50;99.90;;;;;;4964975;28;20194;-52
2024/03/04 01:48:13;;;;;;;78.50;42.87;;;7.50;99.90;;;;;;4932741;28;20780;-53
2024/03/04 01:50:43;;;;;;;70.63;40.83;;;7.50;99.90;;;;;;4964069;28;20225;-51
2024/03/04 01:53:11;;;;;;;73.33;41.57;;;7.50;99.90;;;;;;4961054;28;20236;-54
2024/03/04 01:55:40;;;;;;;83.23;44.33;;;7.50;99.90;;;;;;4957114;28;20253;-53
2024/03/04 01:58:11;;;;;;;78.63;42.10;;;7.50;99.90;;;;;;4961716;28;20210;-50
2024/03/04 02:00:41;;;;;;;76.03;42.30;;;7.50;99.90;;;;;;4963484;28;20218;-48
2024/03/04 02:03:12;;;;;;;73.30;41.13;;;7.50;99.90;;;;;;4961309;28;20589;-53
2024/03/04 02:05:40;;;;;;;78.03;42.93;;;7.40;99.90;;;;;;4934681;28;20212;-53
2024/03/04 02:08:08;;;;;;;72.50;41.23;;;7.40;99.90;;;;;;4961657;28;20198;-51
2024/03/04 02:10:34;;;;;;;67.97;41.37;;;7.40;99.90;;;;;;4956857;28;20222;-52
2024/03/04 02:13:02;;;;;;;75.80;42.27;;;7.50;99.90;;;;;;4962736;28;20198;-52
2024/03/04 02:15:34;;;;;;;78.67;42.33;;;7.40;99.90;;;;;;4962450;28;20228;-52
2024/03/04 02:18:02;;;;;;;74.83;42.67;;;7.40;99.90;;;;;;4962368;28;20249;-53
2024/03/04 02:20:32;;;;;;;73.53;42.40;;;7.40;99.90;;;;;;4931419;28;20221;-51
2024/03/04 02:23:00;;;;;;;68.87;41.10;;;7.40;99.90;;;;;;4960432;28;20198;-53
2024/03/04 02:25:34;;;;;;;72.17;41.33;;;7.40;99.90;;;;;;4955289;28;20217;-52
2024/03/04 02:28:02;;;;;;;72.57;40.67;;;7.40;99.90;;;;;;4962501;28;20221;-52
2024/03/04 02:30:31;;;;;;;76.23;42.27;;;7.40;99.90;;;;;;4960099;28;20217;-54
2024/03/04 02:32:58;;;;;;;64.73;39.63;;;7.40;99.90;;;;;;4963212;28;20198;-51
2024/03/04 02:35:27;;;;;;;71.00;40.23;;;7.40;99.90;;;;;;4931114;28;20328;-50
2024/03/04 02:37:54;;;;;;;71.70;39.83;;;7.30;99.90;;;;;;4964007;28;20250;-52
2024/03/04 02:40:22;;;;;;;68.00;40.30;;;7.30;99.90;;;;;;4953544;28;20229;-49
2024/03/04 02:42:50;;;;;;;69.47;39.13;;;7.30;99.90;;;;;;4964457;28;20637;-51
2024/03/04 02:45:17;;;;;;;67.30;41.67;;;7.30;99.90;;;;;;4958950;28;20918;-51
2024/03/04 02:47:44;;;;;;;64.30;41.93;;;7.30;99.90;;;;;;4964048;28;20669;-49
2024/03/04 02:50:11;;;;;;;69.70;40.03;;;7.30;99.90;;;;;;4959800;28;20300;-51
2024/03/04 02:52:38;;;;;;;65.33;40.90;;;7.30;99.90;;;;;;4927841;28;20209;-52
2024/03/04 02:55:05;;;;;;;73.67;40.30;;;7.20;99.90;;;;;;4960904;28;20198;-50
2024/03/04 02:57:34;;;;;;;63.63;38.40;;;7.20;99.90;;;;;;4955576;28;20257;-54
2024/03/04 03:00:01;;;;;;;64.20;40.47;;;7.30;99.90;;;;;;4961965;28;20218;-52
2024/03/04 03:02:28;;;;;;;67.00;38.37;;;7.30;99.90;;;;;;4960518;28;20869;-54
2024/03/04 03:04:54;;;;;;;66.93;40.43;;;7.20;99.90;;;;;;4962957;28;20194;-53
2024/03/04 03:07:21;;;;;;;65.00;39.23;;;7.20;99.90;;;;;;4929811;28;20213;-53
2024/03/04 03:09:48;;;;;;;69.27;38.70;;;7.20;99.90;;;;;;4962165;28;20900;-53
2024/03/04 03:12:15;;;;;;;61.07;38.33;;;7.20;99.90;;;;;;4952836;28;20206;-54
2024/03/04 03:14:43;;;;;;;61.13;38.33;;;7.20;99.90;;;;;;4963408;28;20204;-51
2024/03/04 03:17:10;;;;;;;61.60;39.33;;;7.20;99.90;;;;;;4959823;28;20346;-52
2024/03/04 03:19:38;;;;;;;66.20;39.43;;;7.20;99.90;;;;;;4963378;28;20715;-53
2024/03/04 03:22:05;;;;;;;63.27;38.80;;;7.20;99.90;;;;;;4938849;28;20209;-54
2024/03/04 03:24:32;;;;;;;67.03;38.50;;;7.10;99.90;;;;;;4954800;28;20209;-52
2024/03/04 03:26:58;;;;;;;66.00;38.53;;;7.20;99.90;;;;;;4959596;28;20610;-53
2024/03/04 03:29:25;;;;;;;63.80;37.90;;;7.20;99.90;;;;;;4955384;28;20221;-54
2024/03/04 03:31:54;;;;;;;64.80;39.47;;;7.20;99.90;;;;;;4963166;28;20792;-51
2024/03/04 03:34:20;;;;;;;62.67;38.77;;;7.20;99.90;;;;;;4959889;28;20186;-52
2024/03/04 03:36:47;;;;;;;56.93;36.47;;;7.10;99.90;;;;;;4963003;28;20202;-52
2024/03/04 03:39:14;;;;;;;66.00;36.77;;;7.20;99.90;;;;;;4929108;28;20253;-54
2024/03/04 03:41:41;;;;;;;63.30;38.73;;;7.20;99.90;;;;;;4963846;28;20222;-52
2024/03/04 03:44:08;;;;;;;64.57;38.70;;;7.20;99.90;;;;;;4953655;28;20210;-52
2024/03/04 03:46:35;;;;;;;66.03;36.27;;;7.20;99.90;;;;;;4962752;28;20208;-53
2024/03/04 03:49:03;;;;;;;66.07;38.37;;;7.20;99.90;;;;;;4961197;28;20198;-53
2024/03/04 03:51:30;;;;;;;59.57;36.67;;;7.10;99.90;;;;;;4961153;28;20198;-53
2024/03/04 03:53:57;;;;;;;66.93;38.17;;;7.10;99.90;;;;;;4953127;28;20202;-53
2024/03/04 03:56:24;;;;;;;61.27;37.70;;;7.10;99.90;;;;;;4938022;28;20222;-52
2024/03/04 03:58:51;;;;;;;57.63;35.10;;;7.10;99.90;;;;;;4967202;28;20832;-54
2024/03/04 04:01:18;;;;;;;66.93;36.27;;;7.00;99.90;;;;;;4956117;28;21000;-53
2024/03/04 04:03:45;;;;;;;63.03;35.97;;;7.00;99.90;;;;;;4962106;28;20202;-52
2024/03/04 04:06:13;;;;;;;65.13;37.43;;;6.90;99.90;;;;;;4962685;28;20198;-52
2024/03/04 04:08:41;;;;;;;62.20;38.20;;;6.90;99.90;;;;;;4965786;28;20213;-50
2024/03/04 04:11:07;;;;;;;63.00;37.60;;;6.80;99.90;;;;;;4934425;28;20230;-53
2024/03/04 04:13:34;;;;;;;62.33;37.57;;;6.80;99.90;;;;;;4966551;28;20198;-51
2024/03/04 04:16:01;;;;;;;64.67;37.37;;;6.80;99.90;;;;;;4958296;28;20237;-54
2024/03/04 04:18:28;;;;;;;64.57;36.00;;;6.70;99.90;;;;;;4964124;28;20210;-52
2024/03/04 04:20:55;;;;;;;60.73;35.63;;;6.70;99.90;;;;;;4966175;28;20218;-54
2024/03/04 04:23:23;;;;;;;61.00;36.17;;;6.70;99.90;;;;;;4961288;28;20224;-55
2024/03/04 04:25:51;;;;;;;54.37;35.23;;;6.60;99.90;;;;;;4966358;28;20269;-55
2024/03/04 04:28:17;;;;;;;55.57;35.93;;;6.60;99.90;;;;;;4933164;28;20772;-51
2024/03/04 04:30:45;;;;;;;57.60;35.50;;;6.50;99.90;;;;;;4966193;28;20220;-54
2024/03/04 04:33:12;;;;;;;54.53;33.27;;;6.50;99.90;;;;;;4955805;28;20210;-52
2024/03/04 04:35:39;;;;;;;53.10;33.50;;;6.60;99.90;;;;;;4966135;28;20245;-53
2024/03/04 04:38:06;;;;;;;63.97;35.83;;;6.50;99.90;;;;;;4963325;28;20272;-53
2024/03/04 04:40:34;;;;;;;63.37;36.03;;;6.50;99.90;;;;;;4964887;28;20218;-52
2024/03/04 04:43:01;;;;;;;60.07;35.27;;;6.50;99.90;;;;;;4928043;28;20222;-53
2024/03/04 04:45:27;;;;;;;56.37;34.47;;;6.50;99.90;;;;;;4962920;28;20273;-54
2024/03/04 04:47:54;;;;;;;63.63;35.97;;;6.50;99.90;;;;;;4959398;28;20794;-54
2024/03/04 04:50:21;;;;;;;53.93;34.93;;;6.50;99.90;;;;;;4962438;28;20220;-63
2024/03/04 04:52:48;;;;;;;59.77;35.83;;;6.40;99.90;;;;;;4966032;28;20257;-52
2024/03/04 04:55:15;;;;;;;57.67;35.67;;;6.40;99.90;;;;;;4961780;28;20197;-52
2024/03/04 04:57:43;;;;;;;54.07;34.00;;;6.40;99.90;;;;;;4940620;28;20230;-53
2024/03/04 05:00:12;;;;;;;58.93;36.63;;;6.40;99.90;;;;;;4961434;28;20246;-53
2024/03/04 05:02:40;;;;;;;62.77;36.13;;;6.40;99.90;;;;;;4962898;28;20214;-50
2024/03/04 05:05:08;;;;;;;59.83;35.47;;;6.30;99.90;;;;;;4961655;28;20195;-54
2024/03/04 05:07:34;;;;;;;56.77;35.40;;;6.40;99.90;;;;;;4963302;28;20202;-52
2024/03/04 05:10:01;;;;;;;65.83;35.87;;;6.40;99.90;;;;;;4951366;28;20229;-55
2024/03/04 05:12:27;;;;;;;50.23;33.30;;;6.40;99.90;;;;;;4964055;28;20248;-54
2024/03/04 05:14:55;;;;;;;56.97;34.50;;;6.30;99.90;;;;;;4926939;28;21939;-51
2024/03/04 05:17:22;;;;;;;60.17;35.43;;;6.30;99.90;;;;;;4959152;28;20218;-51
2024/03/04 05:19:49;;;;;;;55.87;35.90;;;6.20;99.90;;;;;;4963299;28;20241;-52
2024/03/04 05:22:16;;;;;;;60.33;35.10;;;6.20;99.90;;;;;;4959219;28;20637;-51
2024/03/04 05:24:44;;;;;;;63.10;36.00;;;6.20;99.90;;;;;;4966117;28;20201;-55
2024/03/04 05:27:11;;;;;;;57.40;35.03;;;6.30;99.90;;;;;;4961036;28;20209;-55
2024/03/04 05:29:38;;;;;;;54.70;33.97;;;6.20;99.90;;;;;;4928380;28;20268;-53
2024/03/04 05:32:07;;;;;;;55.77;34.40;;;6.20;99.90;;;;;;4961053;28;20864;-54
2024/03/04 05:34:34;;;;;;;59.50;36.40;;;6.20;99.90;;;;;;4956876;28;20214;-54
2024/03/04 05:37:01;;;;;;;61.33;35.13;;;6.10;99.90;;;;;;4965280;28;20354;-53
2024/03/04 05:39:31;;;;;;;64.23;36.47;;;6.10;99.90;;;;;;4966782;28;20221;-53
2024/03/04 05:41:58;;;;;;;56.40;35.47;;;6.10;99.90;;;;;;4964646;28;20202;-52
2024/03/04 05:44:24;;;;;;;57.40;36.07;;;6.10;99.90;;;;;;4929032;28;20246;-53
2024/03/04 05:46:51;;;;;;;52.37;35.30;;;6.10;99.90;;;;;;4954491;28;20202;-52
2024/03/04 05:49:19;;;;;;;62.70;36.97;;;6.10;99.90;;;;;;4958214;28;20209;-53
2024/03/04 05:51:47;;;;;;;62.60;35.63;;;6.10;99.90;;;;;;4959381;28;20190;-54
2024/03/04 05:54:14;;;;;;;64.83;37.77;;;6.20;99.90;;;;;;4965679;28;20590;-53
2024/03/04 05:56:41;;;;;;;60.33;35.80;;;6.10;99.90;;;;;;4963026;28;20307;-53
2024/03/04 05:59:09;;;;;;;56.37;35.60;;;6.10;99.90;;;;;;4935145;28;20679;-54
2024/03/04 06:01:36;;;;;;;70.57;36.87;;;6.20;99.90;;;;;;4943992;28;20480;-50
2024/03/04 06:04:02;;;;;;;60.43;35.67;;;6.20;99.90;;;;;;4957038;28;20210;-54
2024/03/04 06:06:31;;;;;;;59.87;36.90;;;6.20;99.90;;;;;;4959999;28;20214;-52
2024/03/04 06:08:58;;;;;;;58.53;36.03;;;6.20;99.90;;;;;;4966381;28;20964;-55
2024/03/04 06:11:26;;;;;;;60.20;36.13;;;6.10;99.90;;;;;;4961056;28;20277;-51
2024/03/04 06:13:53;;;;;;;62.63;37.23;;;6.10;99.90;;;;;;4961032;28;20202;-52
2024/03/04 06:16:20;;;;;;;56.57;36.17;;;6.10;99.90;;;;;;4928758;28;20606;-51
2024/03/04 06:18:47;;;;;;;62.47;36.60;;;6.10;99.90;;;;;;4958100;28;20226;-51
2024/03/04 06:21:14;;;;;;;62.13;38.40;;;6.10;99.90;;;;;;4953131;28;20608;-55
2024/03/04 06:23:43;;;;;;;63.33;37.63;;;6.10;99.90;;;;;;4961356;28;20257;-51
2024/03/04 06:26:11;;;;;;;72.17;37.47;;;6.10;99.90;;;;;;4952872;28;21630;-55
2024/03/04 06:28:38;;;;;;;63.60;37.40;;;6.10;99.90;;;;;;4963729;28;20202;-54
2024/03/04 06:31:06;;;;;;;69.10;38.27;;;6.10;99.90;;;;;;4926183;28;21657;-49
2024/03/04 06:33:33;;;;;;;77.23;38.23;;;6.10;99.90;;;;;;4956489;28;20209;-53
2024/03/04 06:35:59;;;;;;;67.73;36.50;;;6.20;99.90;;;;;;4955582;28;20198;-55
2024/03/04 06:38:26;;;;;;;62.67;38.07;;;6.20;99.90;;;;;;4965225;28;20202;-54
2024/03/04 06:40:54;;;;;;;64.80;38.40;;;6.20;99.90;;;;;;4948934;28;20668;-54
2024/03/04 06:43:21;;;;;;;58.57;37.13;;;6.20;99.90;;;;;;4958019;28;20295;-50
2024/03/04 06:45:48;;;;;;;63.37;37.33;;;6.20;99.90;;;;;;4932855;28;20229;-55
2024/03/04 06:48:15;;;;;;;63.87;38.77;;;6.20;99.90;;;;;;4951191;28;20264;-55
2024/03/04 06:50:42;;;;;;;62.70;37.87;;;6.30;99.90;;;;;;4956275;28;20210;-55
2024/03/04 06:53:09;;;;;;;62.97;38.27;;;6.30;99.90;;;;;;4961425;28;20256;-54
2024/03/04 06:55:37;;;;;;;72.70;38.80;;;6.30;99.90;;;;;;4961967;28;20668;-52
2024/03/04 06:58:05;;;;;;;71.70;37.77;;;6.30;99.90;;;;;;4962590;28;20273;-53
2024/03/04 07:00:32;;;;;;;70.83;38.83;;;6.30;99.90;;;;;;4931202;28;20254;-53
2024/03/04 07:02:59;;;;;;;66.23;37.47;;;6.30;99.90;;;;;;4952116;28;20206;-54
2024/03/04 07:05:25;;;;;;;72.97;38.33;;;6.30;99.90;;;;;;4945421;28;20213;-50
2024/03/04 07:07:52;;;;;;;69.13;39.07;;;6.30;99.90;;;;;;4959977;28;20194;-51
2024/03/04 07:10:19;;;;;;;65.70;37.83;;;6.30;99.90;;;;;;4963373;28;20644;-55
2024/03/04 07:12:46;;;;;;;73.10;38.63;;;6.30;99.90;;;;;;4956308;28;20244;-54
2024/03/04 07:15:14;;;;;;;70.77;37.17;;;6.30;99.90;;;;;;4962448;28;20202;-54
2024/03/04 07:17:41;;;;;;;66.87;39.00;;;6.40;99.90;;;;;;4921340;28;20370;-55
2024/03/04 07:20:09;;;;;;;86.23;40.17;;;6.40;99.90;;;;;;4954852;28;20440;-53
2024/03/04 07:22:37;;;;;;;71.80;38.30;;;6.30;99.90;;;;;;4953950;28;20634;-55
2024/03/04 07:25:04;;;;;;;70.50;39.30;;;6.40;99.90;;;;;;4961334;28;20201;-54
2024/03/04 07:27:32;;;;;;;66.00;38.07;;;6.40;99.90;;;;;;4963210;28;20210;-54
2024/03/04 07:29:58;;;;;;;67.50;38.13;;;6.50;99.90;;;;;;4959549;28;20935;-50
2024/03/04 07:32:27;;;;;;;73.27;40.33;;;6.60;99.90;;;;;;4917823;28;20388;-54
2024/03/04 07:34:54;;;;;;;74.47;39.33;;;6.60;99.90;;;;;;4953434;28;20202;-50
2024/03/04 07:37:21;;;;;;;70.13;38.87;;;6.60;99.90;;;;;;4942890;28;20206;-52
2024/03/04 07:39:48;;;;;;;65.87;40.57;;;6.60;99.90;;;;;;4943379;28;20308;-52
2024/03/04 07:42:23;;;;;;;74.73;40.37;;;6.60;99.90;;;;;;4962029;28;20213;-53
2024/03/04 07:44:50;;;;;;;74.93;40.43;;;6.60;99.90;;;;;;4953036;28;20221;-54
2024/03/04 07:47:30;;;;;;;66.80;38.43;;;6.60;99.90;;;;;;4929576;28;20219;-53
2024/03/04 07:49:58;;;;;;;72.87;39.87;;;6.70;99.90;;;;;;4956090;28;20987;-51
2024/03/04 07:52:28;;;;;;;70.77;39.03;;;6.70;99.90;;;;;;4959142;28;20200;-54
2024/03/04 07:54:57;;;;;;;79.37;40.20;;;6.70;99.90;;;;;;4944387;28;20191;-54
2024/03/04 07:57:25;;;;;;;71.97;38.77;;;6.80;99.90;;;;;;4957759;28;20249;-54
2024/03/04 07:59:58;;;;;;;66.03;37.50;;;6.80;99.90;;;;;;4956741;28;20236;-51
2024/03/04 08:02:33;;;;;;;72.13;38.63;;;6.90;99.90;;;;;;4935458;28;20308;-54
2024/03/04 08:05:00;;;;;;;69.23;39.53;;;6.90;99.90;;;;;;4936308;28;20206;-53
2024/03/04 08:07:31;;;;;;;71.20;39.43;;;6.90;99.90;;;;;;4952556;28;20191;-53
2024/03/04 08:09:58;;;;;;;71.43;38.70;;;6.90;99.90;;;;;;4946756;28;20224;-52
2024/03/04 08:12:30;;;;;;;79.67;39.70;;;7.00;99.90;;;;;;4943420;28;20325;-54
2024/03/04 08:15:00;;;;;;;70.93;40.20;;;7.00;99.90;;;;;;4956682;28;20209;-55
2024/03/04 08:17:41;;;;;;;80.63;40.37;;;7.00;99.90;;;;;;4930961;28;20218;-52
2024/03/04 08:20:09;;;;;;;69.80;38.33;;;7.10;99.90;;;;;;4960610;28;20272;-48
2024/03/04 08:23:00;;;;;;;74.07;39.63;;;7.10;99.90;;;;;;4954569;28;20963;-53
2024/03/04 08:25:35;;;;;;;68.67;39.60;;;7.10;99.90;;;;;;4936184;28;20265;-52
2024/03/04 08:28:02;;;;;;;70.40;39.10;;;7.10;99.90;;;;;;4953957;28;20569;-51
2024/03/04 08:30:31;;;;;;;68.37;39.53;;;7.20;99.90;;;;;;4953105;28;20224;-52
2024/03/04 08:33:02;;;;;;;66.50;38.70;;;7.20;99.90;;;;;;4932759;28;20225;-53
2024/03/04 08:35:32;;;;;;;74.27;39.57;;;7.30;99.90;;;;;;4958347;28;20856;-53
2024/03/04 08:38:00;;;;;;;72.17;41.33;;;7.30;99.90;;;;;;4957548;28;20673;-51
2024/03/04 08:40:33;;;;;;;75.40;40.33;;;7.30;99.90;;;;;;4941814;28;21786;-50
2024/03/04 08:43:00;;;;;;;70.70;40.23;;;7.40;99.90;;;;;;4955818;28;20644;-50
2024/03/04 08:45:31;;;;;;;77.17;42.17;;;7.50;99.90;;;;;;4959479;28;20214;-52
2024/03/04 08:48:02;;;;;;;75.97;42.43;;;7.60;99.90;;;;;;4935775;28;20209;-52
2024/03/04 08:50:30;;;;;;;69.37;39.83;;;7.60;99.90;;;;;;4964572;28;20300;-53
2024/03/04 08:52:57;;;;;;;77.67;41.13;;;7.60;99.90;;;;;;4959946;28;20202;-52
2024/03/04 08:55:27;;;;;;;81.20;42.23;;;7.70;99.90;;;;;;4944828;28;20206;-53
2024/03/04 08:57:54;;;;;;;76.77;42.47;;;7.70;99.90;;;;;;4965269;28;20261;-51
2024/03/04 09:00:24;;;;;;;71.13;42.17;;;7.80;99.90;;;;;;4954266;28;20845;-52
2024/03/04 09:02:56;;;;;;;76.20;40.90;;;7.80;99.90;;;;;;4962019;28;20288;-52
2024/03/04 09:05:28;;;;;;;72.07;40.77;;;7.80;99.90;;;;;;4931214;28;20198;-55
2024/03/04 09:07:59;;;;;;;75.63;40.77;;;7.80;99.90;;;;;;4966035;28;20780;-56
2024/03/04 09:10:30;;;;;;;74.33;41.50;;;7.90;99.90;;;;;;4947681;28;21002;-49
2024/03/04 09:12:58;;;;;;;75.43;41.07;;;8.00;99.90;;;;;;4957330;28;20540;-54
2024/03/04 09:15:25;;;;;;;77.00;40.97;;;8.00;99.90;;;;;;4957827;28;20209;-53
2024/03/04 09:17:52;;;;;;;67.47;39.67;;;8.10;99.90;;;;;;4966009;28;20214;-54
2024/03/04 09:20:19;;;;;;;66.97;39.87;;;8.10;99.90;;;;;;4932932;28;20281;-54
2024/03/04 09:22:48;;;;;;;67.03;39.07;;;8.10;99.90;;;;;;4962933;28;21683;-56
2024/03/04 09:25:15;;;;;;;71.33;39.17;;;8.10;99.90;;;;;;4955905;28;20214;-54
2024/03/04 09:27:44;;;;;;;72.37;39.70;;;8.20;99.90;;;;;;4956615;28;20296;-55
2024/03/04 09:30:13;;;;;;;70.73;38.80;;;8.20;99.90;;;;;;4954880;28;20227;-51
2024/03/04 09:32:42;;;;;;;68.70;39.37;;;8.30;99.90;;;;;;4958511;28;20546;-54
2024/03/04 09:35:11;;;;;;;61.67;37.80;;;8.40;99.90;;;;;;4945805;28;20603;-50
2024/03/04 09:37:41;;;;;;;62.03;37.47;;;8.40;99.90;;;;;;4956708;28;20213;-53
2024/03/04 09:40:12;;;;;;;66.50;38.50;;;8.40;99.90;;;;;;4960232;28;20563;-51
2024/03/04 09:42:45;;;;;;;65.47;38.93;;;8.40;99.90;;;;;;4952609;28;20735;-52
2024/03/04 09:45:13;;;;;;;67.13;39.43;;;8.50;99.90;;;;;;4959242;28;20205;-52
2024/03/04 09:47:51;;;;;;;68.00;38.23;;;8.50;99.90;;;;;;4956022;28;20202;-55
2024/03/04 09:50:22;;;;;;;65.63;37.97;;;8.50;99.90;;;;;;4962427;28;20245;-55
2024/03/04 09:52:57;;;;;;;63.03;37.30;;;8.40;99.90;;;;;;4936104;28;20210;-54
2024/03/04 09:55:26;;;;;;;62.70;36.33;;;8.40;99.90;;;;;;4961232;28;20869;-53
2024/03/04 09:57:56;;;;;;;65.37;37.83;;;8.40;99.90;;;;;;4944998;28;20296;-53
2024/03/04 10:00:27;;;;;;;71.33;40.20;;;8.40;99.90;;;;;;4962285;28;20214;-50
2024/03/04 10:02:59;;;;;;;70.90;40.80;;;8.40;99.90;;;;;;4957367;28;20204;-54
2024/03/04 10:05:31;;;;;;;68.03;39.60;;;8.40;99.90;;;;;;4954985;28;20209;-54
2024/03/04 10:07:58;;;;;;;75.73;41.87;;;8.50;99.90;;;;;;4934797;28;20198;-55
2024/03/04 10:10:31;;;;;;;78.87;44.47;;;8.60;99.90;;;;;;4962532;28;20249;-55
2024/03/04 10:12:59;;;;;;;72.20;43.27;;;8.70;99.90;;;;;;4953117;28;20202;-54
2024/03/04 10:15:29;;;;;;;80.93;44.20;;;8.70;99.90;;;;;;4953914;28;21244;-55
2024/03/04 10:18:10;;;;;;;73.40;41.13;;;8.70;99.90;;;;;;4954229;28;20580;-55
2024/03/04 10:20:38;;;;;;;78.13;43.10;;;8.80;99.90;;;;;;4958195;28;20510;-54
2024/03/04 10:23:06;;;;;;;79.80;42.13;;;8.90;99.90;;;;;;4933703;28;20696;-51
2024/03/04 10:25:35;;;;;;;76.50;43.50;;;8.90;99.90;;;;;;4965668;28;20196;-54
2024/03/04 10:28:05;;;;;;;74.70;42.80;;;9.00;99.90;;;;;;4958915;28;20226;-55
2024/03/04 10:30:35;;;;;;;72.57;41.43;;;9.10;99.90;;;;;;4951935;28;20931;-54
2024/03/04 10:33:04;;;;;;;75.67;44.53;;;9.20;99.90;;;;;;4965015;28;20711;-52
2024/03/04 10:35:35;;;;;;;76.80;44.30;;;9.30;99.90;;;;;;4950938;28;20905;-55
2024/03/04 10:38:06;;;;;;;78.53;44.30;;;9.30;99.90;;;;;;4932219;28;20217;-51
2024/03/04 10:40:39;;;;;;;74.80;43.10;;;9.40;99.90;;;;;;4963568;28;20277;-55
2024/03/04 10:43:08;;;;;;;79.83;43.70;;;9.40;99.90;;;;;;4964566;28;20726;-52
2024/03/04 10:45:37;;;;;;;73.27;44.27;;;9.60;99.90;;;;;;4948600;28;20297;-56
2024/03/04 10:48:05;;;;;;;76.33;43.90;;;9.70;99.90;;;;;;4951496;28;20233;-51
2024/03/04 10:50:39;;;;;;;68.70;42.23;;;9.70;99.90;;;;;;4941600;28;20251;-54
2024/03/04 10:53:07;;;;;;;75.10;43.00;;;9.70;99.90;;;;;;4934199;28;20288;-50
2024/03/04 10:55:40;;;;;;;69.30;42.60;;;9.70;99.90;;;;;;4965232;28;20225;-51
2024/03/04 10:58:08;;;;;;;73.63;41.23;;;9.70;99.90;;;;;;4949219;28;20653;-51
2024/03/04 11:00:39;;;;;;;68.03;42.53;;;9.70;99.90;;;;;;4940801;28;20230;-54
2024/03/04 11:03:12;;;;;;;67.47;43.03;;;9.80;99.90;;;;;;4954949;28;20249;-52
2024/03/04 11:05:43;;;;;;;65.23;41.80;;;9.90;99.90;;;;;;4948198;28;20252;-48
2024/03/04 11:08:15;;;;;;;72.80;44.20;;;10.10;99.90;;;;;;4953868;28;20191;-49
2024/03/04 11:10:48;;;;;;;66.37;42.67;;;10.20;99.90;;;;;;4949430;28;20815;-46
2024/03/04 11:13:20;;;;;;;68.63;43.43;;;10.40;99.90;;;;;;4958182;28;20587;-50
2024/03/04 11:15:54;;;;;;;64.17;40.73;;;10.50;99.90;;;;;;4951541;28;20319;-52
2024/03/04 11:18:34;;;;;;;64.53;41.67;;;10.60;99.90;;;;;;4954000;28;20636;-53
2024/03/04 11:21:02;;;;;;;66.60;42.20;;;10.60;99.90;;;;;;4951458;28;20986;-51
2024/03/04 11:23:30;;;;;;;64.47;41.97;;;10.80;99.90;;;;;;4964632;28;20208;-53
2024/03/04 11:25:59;;;;;;;58.40;39.73;;;10.90;99.90;;;;;;4931478;28;20938;-50
2024/03/04 11:28:27;;;;;;;60.77;40.60;;;11.00;99.90;;;;;;4949410;28;20194;-48
2024/03/04 11:30:54;;;;;;;59.87;40.30;;;11.10;99.90;;;;;;4956062;28;20222;-57
2024/03/04 11:33:41;;;;;;;62.37;42.40;;;11.20;99.90;;;;;;4953130;28;20297;-55
2024/03/04 11:36:09;;;;;;;60.17;40.33;;;11.30;99.90;;;;;;4943246;28;20256;-57
2024/03/04 11:38:45;;;;;;;56.70;39.17;;;11.30;99.90;;;;;;4960166;28;20273;-51
2024/03/04 11:41:13;;;;;;;52.00;37.97;;;11.40;99.90;;;;;;4925642;28;20296;-57
2024/03/04 11:43:48;;;;;;;58.50;39.10;;;11.50;99.90;;;;;;4960900;28;20205;-47
2024/03/04 11:46:18;;;;;;;55.47;37.63;;;11.50;99.90;;;;;;4952982;28;20661;-51
2024/03/04 11:48:46;;;;;;;55.60;38.73;;;11.60;99.90;;;;;;4950346;28;20580;-54
2024/03/04 11:51:13;;;;;;;57.83;38.10;;;11.60;99.90;;;;;;4956587;28;20221;-58
2024/03/04 11:53:44;;;;;;;52.80;37.57;;;11.80;99.90;;;;;;4956721;28;20209;-49
2024/03/04 11:56:13;;;;;;;49.80;35.93;;;12.00;99.90;;;;;;4926876;28;21826;-55
2024/03/04 11:58:40;;;;;;;54.70;36.87;;;12.10;99.90;;;;;;4962053;28;20685;-55
2024/03/04 12:01:07;;;;;;;53.50;36.87;;;12.20;99.90;;;;;;4949061;28;21775;-51
2024/03/04 12:03:34;;;;;;;52.73;36.50;;;12.20;99.90;;;;;;4955144;28;20233;-57
2024/03/04 12:06:01;;;;;;;53.47;37.43;;;12.30;99.90;;;;;;4951198;28;22030;-49
2024/03/04 12:08:28;;;;;;;55.00;37.00;;;12.40;99.90;;;;;;4963304;28;20277;-51
2024/03/04 12:10:57;;;;;;;54.60;37.57;;;12.40;99.90;;;;;;4933805;28;21013;-53
2024/03/04 12:13:25;;;;;;;51.97;35.67;;;12.30;99.90;;;;;;4957086;28;20206;-52
2024/03/04 12:15:56;;;;;;;46.57;34.63;;;12.40;99.90;;;;;;4946667;28;20209;-54
2024/03/04 12:18:26;;;;;;;46.43;33.80;;;12.50;99.90;;;;;;4956639;28;20712;-52
2024/03/04 12:20:55;;;;;;;45.40;33.13;;;12.50;99.90;;;;;;4961565;28;20922;-49
2024/03/04 12:23:22;;;;;;;50.10;35.53;;;12.60;99.90;;;;;;4958338;28;20217;-52
2024/03/04 12:25:48;;;;;;;46.03;33.90;;;12.70;99.90;;;;;;4940968;28;20606;-58
2024/03/04 12:28:18;;;;;;;48.30;34.77;;;12.80;99.90;;;;;;4955369;28;20224;-51
2024/03/04 12:30:47;;;;;;;49.87;32.83;;;12.80;99.90;;;;;;4956411;28;20221;-59
2024/03/04 12:33:15;;;;;;;45.90;33.93;;;12.80;99.90;;;;;;4955886;28;20707;-53
2024/03/04 12:35:44;;;;;;;44.70;33.87;;;12.80;99.90;;;;;;4964577;28;20273;-57
2024/03/04 12:38:10;;;;;;;47.97;33.97;;;12.90;99.90;;;;;;4958530;28;20329;-53
2024/03/04 12:40:38;;;;;;;46.33;33.47;;;13.00;99.90;;;;;;4963129;28;20230;-58